createdAt,value
2023-01-02T00:00:53.653Z,12.60
2023-01-02T00:05:55.721Z,11.10
2023-01-02T00:10:57.993Z,10.40
2023-01-02T00:16:01.346Z,11.60
2023-01-02T00:21:05.329Z,11.00
2023-01-02T00:26:07.424Z,9.70
2023-01-02T00:31:13.795Z,10.20
2023-01-02T00:36:15.851Z,11.00
2023-01-02T00:41:19.053Z,15.30
2023-01-02T00:46:20.876Z,17.70
2023-01-02T00:51:22.595Z,22.50
2023-01-02T00:56:24.377Z,23.80
2023-01-02T01:01:26.309Z,21.80
2023-01-02T01:06:28.236Z,22.50
2023-01-02T01:11:30.045Z,23.40
2023-01-02T01:16:32.517Z,19.90
2023-01-02T01:21:34.256Z,23.30
2023-01-02T01:26:35.953Z,21.10
2023-01-02T01:31:37.701Z,21.90
2023-01-02T01:36:39.634Z,22.60
2023-01-02T01:41:41.339Z,20.30
2023-01-02T01:46:45.277Z,28.10
2023-01-02T01:51:54.186Z,26.70
2023-01-02T01:57:01.857Z,27.00
2023-01-02T02:02:03.904Z,24.00
2023-01-02T02:07:06.159Z,19.90
2023-01-02T02:12:08.716Z,21.10
2023-01-02T02:17:22.437Z,13.70
2023-01-02T02:22:42.791Z,12.80
2023-01-02T02:27:59.641Z,10.30
2023-01-02T02:33:15.554Z,13.40
2023-01-02T02:38:52.279Z,12.10
2023-01-02T02:44:31.303Z,11.50
2023-01-02T02:49:58.019Z,11.40
2023-01-02T02:55:22.273Z,14.30
2023-01-02T03:00:24.717Z,6.30
2023-01-02T03:05:35.104Z,10.50
2023-01-02T03:10:50.108Z,9.40
2023-01-02T03:16:09.647Z,11.20
2023-01-02T03:21:18.685Z,10.10
2023-01-02T03:26:26.051Z,14.00
2023-01-02T03:31:34.410Z,14.30
2023-01-02T03:36:40.267Z,12.00
2023-01-02T03:41:48.781Z,10.70
2023-01-02T03:47:15.171Z,10.00
2023-01-02T03:52:21.016Z,13.60
2023-01-02T03:57:38.217Z,13.10
2023-01-02T04:03:26.242Z,15.30
2023-01-02T04:08:37.978Z,14.90
2023-01-02T04:13:44.343Z,15.50
2023-01-02T04:18:58.207Z,15.50
2023-01-02T04:24:09.409Z,12.10
2023-01-02T04:29:11.573Z,12.90
2023-01-02T04:34:16.400Z,16.40
2023-01-02T04:39:21.773Z,7.50
2023-01-02T04:44:24.127Z,10.40
2023-01-02T04:49:27.223Z,13.20
2023-01-02T04:54:29.078Z,8.80
2023-01-02T04:59:30.858Z,9.80
2023-01-02T05:04:32.556Z,10.30
2023-01-02T05:09:34.411Z,10.80
2023-01-02T05:14:36.147Z,14.70
2023-01-02T05:19:37.857Z,13.80
2023-01-02T05:24:39.543Z,12.30
2023-01-02T05:29:41.323Z,14.70
2023-01-02T05:34:43.063Z,15.40
2023-01-02T05:39:44.787Z,14.50
2023-01-02T05:44:47.044Z,17.70
2023-01-02T05:49:48.772Z,17.60
2023-01-02T05:54:50.594Z,15.10
2023-01-02T05:59:52.356Z,13.50
2023-01-02T06:04:54.064Z,16.70
2023-01-02T06:09:55.781Z,12.80
2023-01-02T06:14:57.464Z,18.30
2023-01-02T06:19:59.196Z,17.50
2023-01-02T06:25:00.875Z,18.70
2023-01-02T06:30:05.322Z,19.70
2023-01-02T06:35:07.287Z,28.10
2023-01-02T06:40:09.173Z,33.20
2023-01-02T06:45:11.413Z,40.90
2023-01-02T06:50:13.234Z,34.90
2023-01-02T06:55:14.968Z,31.00
2023-01-02T07:00:18.986Z,36.90
2023-01-02T07:05:24.574Z,37.60
2023-01-02T07:10:26.610Z,38.60
2023-01-02T07:15:28.579Z,35.10
2023-01-02T07:20:30.303Z,36.70
2023-01-02T07:25:32.071Z,29.20
2023-01-02T07:30:33.807Z,36.90
2023-01-02T07:35:35.584Z,25.90
2023-01-02T07:40:37.292Z,34.20
2023-01-02T07:45:39.048Z,31.80
2023-01-02T07:50:41.324Z,35.10
2023-01-02T07:55:43.248Z,25.60
2023-01-02T08:00:44.934Z,26.10
2023-01-02T08:05:46.734Z,23.20
2023-01-02T08:10:48.510Z,24.70
2023-01-02T08:15:50.203Z,28.80
2023-01-02T08:20:51.957Z,26.40
2023-01-02T08:25:57.849Z,25.10
2023-01-02T08:31:00.528Z,29.10
2023-01-02T08:36:02.380Z,30.20
2023-01-02T08:41:04.299Z,26.80
2023-01-02T08:46:08.138Z,27.00
2023-01-02T08:51:09.934Z,15.00
2023-01-02T08:56:17.869Z,14.00
2023-01-02T09:01:20.017Z,9.90
2023-01-02T09:06:23.869Z,14.50
2023-01-02T09:11:26.939Z,9.00
2023-01-02T09:16:28.857Z,9.50
2023-01-02T09:21:30.691Z,8.40
2023-01-02T09:26:32.477Z,7.40
2023-01-02T09:31:34.719Z,7.20
2023-01-02T09:36:36.833Z,9.40
2023-01-02T09:41:42.359Z,5.70
2023-01-02T09:46:57.136Z,10.00
2023-01-02T09:51:59.176Z,8.60
2023-01-02T09:57:27.712Z,8.80
2023-01-02T10:02:35.635Z,7.80
2023-01-02T10:08:01.555Z,7.30
2023-01-02T10:13:18.876Z,7.60
2023-01-02T10:18:29.951Z,7.50
2023-01-02T10:23:54.066Z,5.80
2023-01-02T10:29:24.045Z,7.20
2023-01-02T10:34:41.658Z,6.40
2023-01-02T10:39:46.439Z,6.60
2023-01-02T10:44:48.333Z,6.50
2023-01-02T10:49:52.171Z,7.30
2023-01-02T10:54:59.908Z,6.50
2023-01-02T11:00:04.377Z,5.90
2023-01-02T11:05:16.123Z,7.60
2023-01-02T11:10:33.161Z,7.40
2023-01-02T11:15:43.441Z,5.70
2023-01-02T11:20:52.257Z,7.50
2023-01-02T11:25:54.642Z,5.40
2023-01-02T11:31:15.063Z,5.10
2023-01-02T11:36:18.636Z,5.50
2023-01-02T11:41:49.053Z,4.70
2023-01-02T11:46:52.036Z,4.10
2023-01-02T11:52:01.850Z,5.10
2023-01-02T11:57:04.086Z,5.10
2023-01-02T12:02:20.429Z,5.40
2023-01-02T12:07:46.860Z,4.90
2023-01-02T12:13:00.595Z,4.60
2023-01-02T12:18:11.376Z,5.20
2023-01-02T12:23:45.884Z,4.80
2023-01-02T12:29:09.415Z,4.80
2023-01-02T12:34:26.404Z,4.20
2023-01-02T12:39:30.906Z,4.80
2023-01-02T12:44:48.113Z,4.30
2023-01-02T12:49:59.016Z,4.00
2023-01-02T12:55:19.665Z,4.60
2023-01-02T13:00:36.006Z,5.00
2023-01-02T13:05:51.320Z,5.50
2023-01-02T13:10:54.510Z,4.70
2023-01-02T13:16:03.760Z,5.60
2023-01-02T13:21:21.209Z,5.20
2023-01-02T13:26:26.280Z,4.70
2023-01-02T13:31:48.219Z,7.40
2023-01-02T13:36:57.748Z,6.80
2023-01-02T13:42:21.313Z,3.40
2023-01-02T13:47:34.894Z,4.60
2023-01-02T13:52:37.571Z,5.90
2023-01-02T13:57:39.301Z,3.60
2023-01-02T14:02:41.042Z,6.10
2023-01-02T14:07:45.837Z,6.20
2023-01-02T14:12:57.562Z,4.10
2023-01-02T14:18:05.861Z,4.60
2023-01-02T14:23:10.821Z,4.90
2023-01-02T14:28:21.833Z,6.40
2023-01-02T14:33:33.694Z,6.00
2023-01-02T14:38:41.392Z,7.70
2023-01-02T14:43:45.001Z,5.90
2023-01-02T14:49:25.028Z,6.60
2023-01-02T14:54:42.368Z,6.40
2023-01-02T14:59:48.830Z,7.50
2023-01-02T15:04:57.005Z,7.50
2023-01-02T15:10:04.184Z,5.70
2023-01-02T15:15:09.082Z,7.40
2023-01-02T15:20:26.501Z,6.40
2023-01-02T15:25:37.810Z,7.10
2023-01-02T15:30:40.324Z,11.50
2023-01-02T15:35:42.128Z,6.70
2023-01-02T15:40:44.863Z,6.00
2023-01-02T15:45:51.346Z,5.90
2023-01-02T15:50:56.165Z,6.40
2023-01-02T15:55:58.713Z,8.70
2023-01-02T16:01:16.273Z,10.50
2023-01-02T16:06:24.086Z,7.60
2023-01-02T16:11:26.847Z,9.40
2023-01-02T16:16:48.593Z,9.30
2023-01-02T16:21:59.952Z,9.90
2023-01-02T16:27:02.247Z,12.00
2023-01-02T16:32:03.995Z,10.10
2023-01-02T16:37:28.771Z,9.50
2023-01-02T16:42:36.823Z,13.30
2023-01-02T16:47:40.977Z,12.10
2023-01-02T16:52:43.368Z,12.20
2023-01-02T16:57:45.114Z,11.40
2023-01-02T17:02:47.660Z,9.90
2023-01-02T17:07:49.591Z,10.50
2023-01-02T17:12:51.391Z,9.90
2023-01-02T17:17:53.076Z,10.90
2023-01-02T17:22:55.126Z,10.30
2023-01-02T17:27:57.408Z,11.00
2023-01-02T17:33:03.937Z,12.30
2023-01-02T17:38:07.061Z,11.70
2023-01-02T17:43:08.735Z,10.00
2023-01-02T17:48:12.842Z,11.50
2023-01-02T17:53:16.006Z,14.20
2023-01-02T17:58:17.835Z,14.50
2023-01-02T18:03:19.585Z,11.80
2023-01-02T18:08:21.866Z,13.00
2023-01-02T18:13:23.750Z,14.50
2023-01-02T18:18:27.572Z,12.50
2023-01-02T18:23:29.298Z,12.90
2023-01-02T18:28:30.975Z,12.90
2023-01-02T18:33:33.278Z,15.60
2023-01-02T18:38:38.145Z,12.20
2023-01-02T18:43:41.640Z,14.60
2023-01-02T18:48:43.873Z,13.20
2023-01-02T18:53:54.321Z,13.90
2023-01-02T18:59:14.212Z,13.70
2023-01-02T19:04:28.211Z,14.10
2023-01-02T19:09:36.580Z,16.90
2023-01-02T19:14:41.206Z,13.90
2023-01-02T19:19:44.400Z,15.00
2023-01-02T19:24:46.596Z,13.60
2023-01-02T19:29:49.293Z,13.80
2023-01-02T19:34:52.874Z,11.80
2023-01-02T19:39:57.337Z,14.10
2023-01-02T19:45:00.969Z,15.20
2023-01-02T19:50:05.181Z,12.40
2023-01-02T19:55:08.499Z,14.30
2023-01-02T20:00:13.981Z,11.80
2023-01-02T20:05:21.350Z,13.90
2023-01-02T20:10:24.708Z,14.30
2023-01-02T20:15:28.303Z,12.00
2023-01-02T20:20:30.254Z,11.40
2023-01-02T20:25:33.194Z,13.50
2023-01-02T20:30:35.018Z,15.60
2023-01-02T20:35:36.716Z,12.00
2023-01-02T20:40:38.404Z,11.70
2023-01-02T20:45:40.252Z,13.40
2023-01-02T20:50:42.068Z,13.40
2023-01-02T20:55:44.564Z,15.50
2023-01-02T21:00:47.525Z,12.60
2023-01-02T21:05:49.284Z,13.40
2023-01-02T21:10:51.110Z,11.30
2023-01-02T21:15:53.003Z,11.60
2023-01-02T21:21:17.689Z,14.80
2023-01-02T21:26:21.828Z,12.90
2023-01-02T21:31:23.700Z,13.20
2023-01-02T21:36:25.438Z,13.60
2023-01-02T21:41:45.928Z,12.90
2023-01-02T21:46:47.673Z,14.10
2023-01-02T21:51:49.348Z,13.10
2023-01-02T21:56:51.092Z,14.30
2023-01-02T22:01:54.524Z,14.70
2023-01-02T22:12:21.981Z,15.80
2023-01-02T22:17:23.739Z,14.80
2023-01-02T22:22:25.595Z,13.30
2023-01-02T22:27:28.650Z,15.80
2023-01-02T22:32:34.374Z,12.80
2023-01-02T22:37:36.283Z,15.40
2023-01-02T22:43:10.432Z,15.80
2023-01-02T22:48:20.610Z,13.80
2023-01-02T22:53:34.410Z,16.60
2023-01-02T22:58:36.135Z,15.90
2023-01-02T23:03:42.600Z,14.50
2023-01-02T23:08:44.454Z,16.50
2023-01-02T23:13:50.275Z,16.70
2023-01-02T23:24:20.054Z,15.10
2023-01-02T23:29:23.231Z,14.90
2023-01-02T23:34:27.447Z,17.70
2023-01-02T23:39:31.041Z,16.10
2023-01-02T23:44:32.727Z,18.80
2023-01-02T23:49:34.388Z,18.60
2023-01-02T23:54:36.091Z,15.20
2023-01-02T23:59:37.816Z,13.30
